Elmar Dos — EAJM — position and weather

sailwx.info

Track history (hours):
 
Tides and Currents Weather Stations Pressure Air Temp Water Temp Dewpoint Dewpoint Depression Visibility Wind Speed Wind Dir Waves Ship Positions

Elmar Dos

Last reported at 2018-Feb-25 11:30 UTC. Time now 2018-Feb-25 11:47 UTC.
Position N 43°20' W 002°16'.

Length 40 m; draft 1.5 m.

Type: Dredging. MMSI: 224040390.

Date/timePositionNaut miles runAvg speedWind from/ knotsBaromVisibWave heightAir tempDewpointWater temp
2018-Feb-25 11:30N 43°20' W 002°16'2 0.7
2018-Feb-25 08:22N 43°18' W 002°15'2 6.0
2018-Feb-25 08:00N 43°20' W 002°16'4 7.1
2018-Feb-25 07:30N 43°23' W 002°19'0 0.7
2018-Feb-25 07:00N 43°23' W 002°19'3 6.1
2018-Feb-25 06:30N 43°20' W 002°16'2 0.5
2018-Feb-25 02:00N 43°18' W 002°15'3 5.4
2018-Feb-25 01:30N 43°20' W 002°17'3 6.4
2018-Feb-25 01:00N 43°23' W 002°19'1 1.3
2018-Feb-25 00:30N 43°23' W 002°19'3 5.8
2018-Feb-25 00:00N 43°20' W 002°16'2 0.8
2018-Feb-24 20:56N 43°18' W 002°15'2 5.4
2018-Feb-24 20:30N 43°20' W 002°16'3 6.2
2018-Feb-24 20:00N 43°23' W 002°19'1 1.6
2018-Feb-24 19:30N 43°23' W 002°19'3 5.8
2018-Feb-24 19:00N 43°21' W 002°17'3 5.8
2018-Feb-24 18:30N 43°19' W 002°15'1 0.2
2018-Feb-24 15:15N 43°18' W 002°15'1 5.1
2018-Feb-24 15:00N 43°19' W 002°16'3 7.0
2018-Feb-24 14:30N 43°22' W 002°18'3 5.0
2018-Feb-24 14:00N 43°24' W 002°20'3 6.3
2018-Feb-24 13:30N 43°22' W 002°18'3 6.2
2018-Feb-24 13:00N 43°19' W 002°15'1 0.1
2018-Feb-24 03:45N 43°18' W 002°15'1 4.6
2018-Feb-24 03:30N 43°19' W 002°16'3 6.1
2018-Feb-24 03:00N 43°22' W 002°18'3 5.6
2018-Feb-24 02:31N 43°24' W 002°20'3 5.1
2018-Feb-24 02:00N 43°22' W 002°18'3 5.8
2018-Feb-24 01:30N 43°20' W 002°16'2 0.8
2018-Feb-23 23:12N 43°18' W 002°15'0 0.2
2018-Feb-23 20:57N 43°18' W 002°15'2 5.3
2018-Feb-23 20:30N 43°20' W 002°17'3 6.0
2018-Feb-23 20:00N 43°23' W 002°19'1 1.7
2018-Feb-23 19:30N 43°23' W 002°19'3 5.7
2018-Feb-23 19:00N 43°21' W 002°17'3 5.7
2018-Feb-23 18:30N 43°19' W 002°15'1 0.2
2018-Feb-23 15:24N 43°18' W 002°15'2 6.1
2018-Feb-23 15:00N 43°20' W 002°17'3 6.9
2018-Feb-23 14:30N 43°23' W 002°19'1 1.1
2018-Feb-23 14:00N 43°23' W 002°19'3 5.7
2018-Feb-23 13:30N 43°20' W 002°16'3 3.9
2018-Feb-23 12:49N 43°18' W 002°15'0 0.0
2018-Feb-23 12:30N 43°18' W 002°15'0 0.0
2018-Feb-23 11:56N 43°18' W 002°15'0 0.0
2018-Feb-23 10:52N 43°18' W 002°15'0 0.9
2018-Feb-23 10:27N 43°18' W 002°15'3 6.4
2018-Feb-23 10:01N 43°21' W 002°17'4 7.1
2018-Feb-23 09:30N 43°24' W 002°20'1 2.6
2018-Feb-23 09:00N 43°23' W 002°18'3 5.6
2018-Feb-23 08:30N 43°20' W 002°16'3 3.8
2018-Feb-23 07:51N 43°18' W 002°15'0 0.0
2018-Feb-23 07:29N 43°18' W 002°15'0 0.0
2018-Feb-23 06:56N 43°18' W 002°15'0 0.0
2018-Feb-23 05:48N 43°18' W 002°15'0 0.0
2018-Feb-23 05:30N 43°18' W 002°15'0 0.2
2018-Feb-23 04:51N 43°18' W 002°15'1 4.3
2018-Feb-23 04:31N 43°19' W 002°16'3 5.8
2018-Feb-23 04:00N 43°22' W 002°18'3 5.3
2018-Feb-23 03:30N 43°24' W 002°20'2 4.3
2018-Feb-23 03:00N 43°22' W 002°18'3 5.7
2018-Feb-23 02:30N 43°20' W 002°16'2 3.8
2018-Feb-23 01:58N 43°18' W 002°15'0 0.1
2018-Feb-23 01:19N 43°18' W 002°15'0 0.0
2018-Feb-23 00:12N 43°18' W 002°15'0 0.0
2018-Feb-23 00:00N 43°18' W 002°15'0 0.8
2018-Feb-22 23:30N 43°18' W 002°15'2 4.9
2018-Feb-22 23:00N 43°20' W 002°17'3 5.8
2018-Feb-22 22:31N 43°23' W 002°19'1 2.2
2018-Feb-22 22:01N 43°24' W 002°19'3 5.2
2018-Feb-22 21:30N 43°21' W 002°17'3 5.2
2018-Feb-22 21:01N 43°19' W 002°15'1 0.8
2018-Feb-22 19:11N 43°18' W 002°15'0 0.0
2018-Feb-22 18:58N 43°18' W 002°15'0 0.0
2018-Feb-22 18:30N 43°18' W 002°15'0 0.7
2018-Feb-22 17:57N 43°18' W 002°15'3 6.3
2018-Feb-22 17:30N 43°21' W 002°17'3 6.7
2018-Feb-22 17:00N 43°23' W 002°19'1 2.1
2018-Feb-22 16:30N 43°23' W 002°18'3 5.6
2018-Feb-22 16:00N 43°20' W 002°16'2 0.9
2018-Feb-22 13:12N 43°18' W 002°15'0 0.8
2018-Feb-22 12:47N 43°18' W 002°15'1 5.4
2018-Feb-22 12:30N 43°19' W 002°16'3 6.8
2018-Feb-22 12:01N 43°22' W 002°18'2 3.7
2018-Feb-22 11:31N 43°24' W 002°20'2 3.2
2018-Feb-22 11:01N 43°22' W 002°18'3 5.7
2018-Feb-22 10:30N 43°20' W 002°16'2 1.2
2018-Feb-22 08:32N 43°18' W 002°15'  
Track history (hours):
 
Tides and Currents Weather Stations Pressure Air Temp Water Temp Dewpoint Dewpoint Depression Visibility Wind Speed Wind Dir Waves Ship Positions

Elmar Dos

Last reported at 2018-Feb-25 11:30 UTC. Time now 2018-Feb-25 11:47 UTC.
Position N 43°20' W 002°16'.

Length 40 m; draft 1.5 m.

Type: Dredging. MMSI: 224040390.

Date/timePositionNaut miles runAvg speedWind from/ knotsBaromVisibWave heightAir tempDewpointWater temp
2018-Feb-25 11:30N 43°20' W 002°16'2 0.7
2018-Feb-25 08:22N 43°18' W 002°15'2 6.0
2018-Feb-25 08:00N 43°20' W 002°16'4 7.1
2018-Feb-25 07:30N 43°23' W 002°19'0 0.7
2018-Feb-25 07:00N 43°23' W 002°19'3 6.1
2018-Feb-25 06:30N 43°20' W 002°16'2 0.5
2018-Feb-25 02:00N 43°18' W 002°15'3 5.4
2018-Feb-25 01:30N 43°20' W 002°17'3 6.4
2018-Feb-25 01:00N 43°23' W 002°19'1 1.3
2018-Feb-25 00:30N 43°23' W 002°19'3 5.8
2018-Feb-25 00:00N 43°20' W 002°16'2 0.8
2018-Feb-24 20:56N 43°18' W 002°15'2 5.4
2018-Feb-24 20:30N 43°20' W 002°16'3 6.2
2018-Feb-24 20:00N 43°23' W 002°19'1 1.6
2018-Feb-24 19:30N 43°23' W 002°19'3 5.8
2018-Feb-24 19:00N 43°21' W 002°17'3 5.8
2018-Feb-24 18:30N 43°19' W 002°15'1 0.2
2018-Feb-24 15:15N 43°18' W 002°15'1 5.1
2018-Feb-24 15:00N 43°19' W 002°16'3 7.0
2018-Feb-24 14:30N 43°22' W 002°18'3 5.0
2018-Feb-24 14:00N 43°24' W 002°20'3 6.3
2018-Feb-24 13:30N 43°22' W 002°18'3 6.2
2018-Feb-24 13:00N 43°19' W 002°15'1 0.1
2018-Feb-24 03:45N 43°18' W 002°15'1 4.6
2018-Feb-24 03:30N 43°19' W 002°16'3 6.1
2018-Feb-24 03:00N 43°22' W 002°18'3 5.6
2018-Feb-24 02:31N 43°24' W 002°20'3 5.1
2018-Feb-24 02:00N 43°22' W 002°18'3 5.8
2018-Feb-24 01:30N 43°20' W 002°16'2 0.8
2018-Feb-23 23:12N 43°18' W 002°15'0 0.2
2018-Feb-23 20:57N 43°18' W 002°15'2 5.3
2018-Feb-23 20:30N 43°20' W 002°17'3 6.0
2018-Feb-23 20:00N 43°23' W 002°19'1 1.7
2018-Feb-23 19:30N 43°23' W 002°19'3 5.7
2018-Feb-23 19:00N 43°21' W 002°17'3 5.7
2018-Feb-23 18:30N 43°19' W 002°15'1 0.2
2018-Feb-23 15:24N 43°18' W 002°15'2 6.1
2018-Feb-23 15:00N 43°20' W 002°17'3 6.9
2018-Feb-23 14:30N 43°23' W 002°19'1 1.1
2018-Feb-23 14:00N 43°23' W 002°19'3 5.7
2018-Feb-23 13:30N 43°20' W 002°16'3 3.9
2018-Feb-23 12:49N 43°18' W 002°15'0 0.0
2018-Feb-23 12:30N 43°18' W 002°15'0 0.0
2018-Feb-23 11:56N 43°18' W 002°15'0 0.0
2018-Feb-23 10:52N 43°18' W 002°15'0 0.9
2018-Feb-23 10:27N 43°18' W 002°15'3 6.4
2018-Feb-23 10:01N 43°21' W 002°17'4 7.1
2018-Feb-23 09:30N 43°24' W 002°20'1 2.6
2018-Feb-23 09:00N 43°23' W 002°18'3 5.6
2018-Feb-23 08:30N 43°20' W 002°16'3 3.8
2018-Feb-23 07:51N 43°18' W 002°15'0 0.0
2018-Feb-23 07:29N 43°18' W 002°15'0 0.0
2018-Feb-23 06:56N 43°18' W 002°15'0 0.0
2018-Feb-23 05:48N 43°18' W 002°15'0 0.0
2018-Feb-23 05:30N 43°18' W 002°15'0 0.2
2018-Feb-23 04:51N 43°18' W 002°15'1 4.3
2018-Feb-23 04:31N 43°19' W 002°16'3 5.8
2018-Feb-23 04:00N 43°22' W 002°18'3 5.3
2018-Feb-23 03:30N 43°24' W 002°20'2 4.3
2018-Feb-23 03:00N 43°22' W 002°18'3 5.7
2018-Feb-23 02:30N 43°20' W 002°16'2 3.8
2018-Feb-23 01:58N 43°18' W 002°15'0 0.1
2018-Feb-23 01:19N 43°18' W 002°15'0 0.0
2018-Feb-23 00:12N 43°18' W 002°15'0 0.0
2018-Feb-23 00:00N 43°18' W 002°15'0 0.8
2018-Feb-22 23:30N 43°18' W 002°15'2 4.9
2018-Feb-22 23:00N 43°20' W 002°17'3 5.8
2018-Feb-22 22:31N 43°23' W 002°19'1 2.2
2018-Feb-22 22:01N 43°24' W 002°19'3 5.2
2018-Feb-22 21:30N 43°21' W 002°17'3 5.2
2018-Feb-22 21:01N 43°19' W 002°15'1 0.8
2018-Feb-22 19:11N 43°18' W 002°15'0 0.0
2018-Feb-22 18:58N 43°18' W 002°15'0 0.0
2018-Feb-22 18:30N 43°18' W 002°15'0 0.7
2018-Feb-22 17:57N 43°18' W 002°15'3 6.3
2018-Feb-22 17:30N 43°21' W 002°17'3 6.7
2018-Feb-22 17:00N 43°23' W 002°19'1 2.1
2018-Feb-22 16:30N 43°23' W 002°18'3 5.6
2018-Feb-22 16:00N 43°20' W 002°16'2 0.9
2018-Feb-22 13:12N 43°18' W 002°15'0 0.8
2018-Feb-22 12:47N 43°18' W 002°15'1 5.4
2018-Feb-22 12:30N 43°19' W 002°16'3 6.8
2018-Feb-22 12:01N 43°22' W 002°18'2 3.7
2018-Feb-22 11:31N 43°24' W 002°20'2 3.2
2018-Feb-22 11:01N 43°22' W 002°18'3 5.7
2018-Feb-22 10:30N 43°20' W 002°16'2 1.2
2018-Feb-22 08:32N 43°18' W 002°15'  

Dump ship's entire track history